Boga Indah — 9V2399 — position and weather

sailwx.info

Track history (hours):
 
Tides and Currents Weather Stations Pressure Air Temp Water Temp Dewpoint Dewpoint Depression Visibility Wind Speed Wind Dir Waves Ship Positions

Boga Indah

Last reported at 2017-Nov-13 22:00 UTC. Time now 2017-Nov-21 01:05 UTC.
Position N 48°54' W 155°36'.

Length 229 m; draft 13.1 m.

Type: Cargo ship. MMSI: 563770000.

Wind from 300 at 33 knots

Barometer 1026.0 mb
Air temperature 4.0 ° C
Visibility: greater than 5.4 NM
Water temperature 8.0 ° C

Date/timePositionNaut miles runAvg speedWind from/ knotsBaromVisibWave heightAir tempDewpointWater temp
2017-Nov-13 22:00N 48°54' W 155°36'   300 / 331026.0 5.4 4.0 8.0
2017-Nov-10 23:00N 47°12' W 139°54'   300 / 241015.0 5.4 6.0 11.0
2017-Nov-08 05:09N 46°13' W 125°44'2 7.0
2017-Nov-08 04:53N 46°12' W 125°41'5 7.1
2017-Nov-08 04:14N 46°12' W 125°35'3 8.2
2017-Nov-08 03:54N 46°12' W 125°31'3 8.2
2017-Nov-08 03:30N 46°13' W 125°26'4 8.9
2017-Nov-08 03:00N 46°13' W 125°19'5 9.6
2017-Nov-08 02:30N 46°13' W 125°13'5 9.9
2017-Nov-08 02:00N 46°13' W 125°05'510.4
2017-Nov-08 01:30N 46°13' W 124°58'510.8
2017-Nov-08 01:00N 46°13' W 124°50'611.1
2017-Nov-08 00:31N 46°13' W 124°42'611.3
2017-Nov-08 00:00N 46°13' W 124°34'611.5
2017-Nov-07 23:30N 46°13' W 124°26'611.7
2017-Nov-07 23:00N 46°13' W 124°17'611.2
2017-Nov-07 22:31N 46°12' W 124°09'510.6
2017-Nov-07 22:00N 46°16' W 124°03'5 9.6
2017-Nov-07 21:30N 46°13' W 123°57'4 7.8
2017-Nov-07 21:00N 46°12' W 123°52'4 8.5
2017-Nov-07 20:30N 46°13' W 123°46'5 9.4
2017-Nov-07 20:00N 46°15' W 123°40'510.4
2017-Nov-07 19:30N 46°16' W 123°33'5 9.2
2017-Nov-07 19:00N 46°15' W 123°26'510.2
2017-Nov-07 18:30N 46°10' W 123°24'510.8
2017-Nov-07 18:00N 46°09' W 123°17'612.7
2017-Nov-07 17:31N 46°11' W 123°08'611.9
2017-Nov-07 17:01N 46°08' W 123°01'5 9.9
2017-Nov-07 16:30N 46°05' W 122°55'510.1
2017-Nov-07 16:00N 46°01' W 122°52'2 4.5
2017-Nov-07 15:31N 45°59' W 122°50'0 0.1
2017-Nov-07 14:36N 45°59' W 122°50'0 0.0
2017-Nov-07 14:30N 45°59' W 122°50'0 0.0
2017-Nov-07 14:00N 45°59' W 122°50'0 0.0
2017-Nov-07 13:30N 45°59' W 122°50'0 0.0
2017-Nov-07 13:00N 45°59' W 122°50'0 0.0
2017-Nov-07 12:30N 45°59' W 122°50'0 0.0
2017-Nov-07 11:57N 45°59' W 122°50'0 0.0
2017-Nov-07 11:21N 45°59' W 122°50'0 0.0
2017-Nov-07 11:00N 45°59' W 122°50'0 0.0
2017-Nov-07 10:27N 45°59' W 122°50'0 0.0
2017-Nov-07 09:54N 45°59' W 122°50'0 0.0
2017-Nov-07 09:27N 45°59' W 122°50'0 0.0
2017-Nov-07 09:00N 45°59' W 122°50'0 0.0
2017-Nov-07 08:30N 45°59' W 122°50'0 0.0
2017-Nov-07 08:00N 45°59' W 122°50'0 0.0
2017-Nov-07 07:30N 45°59' W 122°50'0 0.0
2017-Nov-07 06:57N 45°59' W 122°50'0 0.0
2017-Nov-07 06:30N 45°59' W 122°50'0 0.0
2017-Nov-07 06:00N 45°59' W 122°50'0 0.0
2017-Nov-07 05:24N 45°59' W 122°50'0 0.0
2017-Nov-07 05:00N 45°59' W 122°50'0 0.0
2017-Nov-07 04:27N 45°59' W 122°50'0 0.0
2017-Nov-07 04:00N 45°59' W 122°50'0 0.0
2017-Nov-07 00:27N 45°59' W 122°50'0 0.0
2017-Nov-07 00:00N 45°59' W 122°50'0 0.0
2017-Nov-06 23:30N 45°59' W 122°50'0 0.0
2017-Nov-06 23:00N 45°59' W 122°50'0 0.0
2017-Nov-06 22:30N 45°59' W 122°50'0 0.0
2017-Nov-06 21:57N 45°59' W 122°50'0 0.0
2017-Nov-06 21:30N 45°59' W 122°50'0 0.0
2017-Nov-06 21:00N 45°59' W 122°50'0 0.0
2017-Nov-06 20:12N 45°59' W 122°50'0 0.0
2017-Nov-06 02:24N 45°59' W 122°50'0 0.0
2017-Nov-06 02:00N 45°59' W 122°50'0 0.0
2017-Nov-06 01:30N 45°59' W 122°50'0 0.0
2017-Nov-06 01:00N 45°59' W 122°50'0 0.0
2017-Nov-06 00:30N 45°59' W 122°50'0 0.0
2017-Nov-06 00:00N 45°59' W 122°50'0 0.0
2017-Nov-05 23:06N 45°59' W 122°50'0 0.0
2017-Nov-05 23:00N 45°59' W 122°50'0 0.0
2017-Nov-05 22:30N 45°59' W 122°50'0 0.0
2017-Nov-05 22:00N 45°59' W 122°50'0 0.0
2017-Nov-05 21:24N 45°59' W 122°50'0 0.0
2017-Nov-05 20:57N 45°59' W 122°50'0 0.0
2017-Nov-05 20:24N 45°59' W 122°50'0 0.0
2017-Nov-05 20:00N 45°59' W 122°50'0 0.0
2017-Nov-05 19:30N 45°59' W 122°50'0 0.0
2017-Nov-05 19:00N 45°59' W 122°50'0 0.0
2017-Nov-05 18:30N 45°59' W 122°50'0 0.0
2017-Nov-05 18:00N 45°59' W 122°50'0 0.0
2017-Nov-05 17:30N 45°59' W 122°50'0 0.0
2017-Nov-05 17:00N 45°59' W 122°50'0 0.0
2017-Nov-05 16:30N 45°59' W 122°50'0 0.0
2017-Nov-05 16:00N 45°59' W 122°50'0 0.0
2017-Nov-05 15:30N 45°59' W 122°50'0 0.0
2017-Nov-05 15:00N 45°59' W 122°50'0 0.0
2017-Nov-05 14:30N 45°59' W 122°50'0 0.0
2017-Nov-05 14:00N 45°59' W 122°50'0 0.0
2017-Nov-05 13:27N 45°59' W 122°50'0 0.0
2017-Nov-05 13:00N 45°59' W 122°50'0 0.0
2017-Nov-05 12:30N 45°59' W 122°50'0 0.0
2017-Nov-05 11:56N 45°59' W 122°50'0 0.0
2017-Nov-05 11:23N 45°59' W 122°50'0 0.0
2017-Nov-05 10:57N 45°59' W 122°50'0 0.0
2017-Nov-05 10:24N 45°59' W 122°50'0 0.0
2017-Nov-05 09:57N 45°59' W 122°50'0 0.0
2017-Nov-05 09:27N 45°59' W 122°50'0 0.0
2017-Nov-05 09:00N 45°59' W 122°50'0 0.0
2017-Nov-05 08:30N 45°59' W 122°50'0 0.0
2017-Nov-05 08:00N 45°59' W 122°50'0 0.0
2017-Nov-05 06:33N 45°59' W 122°50'0 0.0
2017-Nov-05 06:27N 45°59' W 122°50'0 0.0
2017-Nov-05 06:00N 45°59' W 122°50'0 0.0
2017-Nov-05 05:24N 45°59' W 122°50'0 0.0
2017-Nov-05 04:57N 45°59' W 122°50'0 0.0
2017-Nov-05 04:30N 45°59' W 122°50'0 0.0
2017-Nov-05 04:00N 45°59' W 122°50'0 0.0
2017-Nov-05 03:27N 45°59' W 122°50'0 0.0
2017-Nov-05 03:00N 45°59' W 122°50'0 0.0
2017-Nov-05 02:27N 45°59' W 122°50'0 0.0
2017-Nov-05 02:00N 45°59' W 122°50'0 0.0
2017-Nov-05 01:30N 45°59' W 122°50'0 0.0
2017-Nov-05 01:00N 45°59' W 122°50'0 0.0
2017-Nov-05 00:30N 45°59' W 122°50'0 0.0
2017-Nov-05 00:00N 45°59' W 122°50'0 0.0
2017-Nov-04 23:27N 45°59' W 122°50'0 0.0
2017-Nov-04 23:00N 45°59' W 122°50'0 0.0
2017-Nov-04 22:30N 45°59' W 122°50'0 0.0
2017-Nov-04 22:00N 45°59' W 122°50'0 0.0
2017-Nov-04 21:29N 45°59' W 122°50'0 0.0
2017-Nov-04 21:00N 45°59' W 122°50'0 0.0
2017-Nov-04 20:30N 45°59' W 122°50'0 0.0
2017-Nov-04 20:00N 45°59' W 122°50'0 0.0
2017-Nov-04 19:29N 45°59' W 122°50'0 0.0
2017-Nov-04 19:00N 45°59' W 122°50'0 0.0
2017-Nov-04 18:15N 45°59' W 122°50'0 0.0
2017-Nov-04 18:00N 45°59' W 122°50'0 0.0
2017-Nov-04 17:30N 45°59' W 122°50'0 0.0
2017-Nov-04 17:00N 45°59' W 122°50'0 0.0
2017-Nov-04 16:30N 45°59' W 122°50'0 0.0
2017-Nov-04 15:56N 45°59' W 122°50'0 0.0
2017-Nov-04 15:27N 45°59' W 122°50'0 0.0
2017-Nov-04 15:00N 45°59' W 122°50'0 0.0
2017-Nov-04 14:20N 45°59' W 122°50'0 0.0
2017-Nov-04 13:59N 45°59' W 122°50'0 0.0
2017-Nov-04 13:29N 45°59' W 122°50'0 0.0
2017-Nov-04 12:56N 45°59' W 122°50'0 0.0
2017-Nov-04 12:29N 45°59' W 122°50'0 0.0
2017-Nov-04 11:57N 45°59' W 122°50'0 0.0
2017-Nov-04 11:29N 45°59' W 122°50'0 0.0
2017-Nov-04 10:59N 45°59' W 122°50'0 0.0
2017-Nov-04 09:50N 45°59' W 122°50'0 0.0
2017-Nov-04 09:26N 45°59' W 122°50'0 0.0
2017-Nov-04 08:56N 45°59' W 122°50'0 0.0
2017-Nov-04 08:30N 45°59' W 122°50'0 0.0
2017-Nov-04 07:56N 45°59' W 122°50'0 0.0
2017-Nov-04 07:29N 45°59' W 122°50'0 0.0
2017-Nov-04 06:59N 45°59' W 122°50'0 0.0
2017-Nov-04 06:29N 45°59' W 122°50'0 0.0
2017-Nov-04 05:50N 45°59' W 122°50'0 0.0
2017-Nov-04 05:26N 45°59' W 122°50'0 0.0
2017-Nov-04 04:59N 45°59' W 122°50'0 0.0
2017-Nov-04 04:29N 45°59' W 122°50'0 0.0
2017-Nov-04 03:59N 45°59' W 122°50'0 0.0
2017-Nov-04 03:02N 45°59' W 122°50'0 0.0
2017-Nov-04 02:59N 45°59' W 122°50'0 0.0
2017-Nov-04 02:29N 45°59' W 122°50'0 0.0
2017-Nov-04 01:56N 45°59' W 122°50'0 0.0
2017-Nov-04 01:29N 45°59' W 122°50'0 0.0
2017-Nov-04 00:59N 45°59' W 122°50'0 0.0
2017-Nov-04 00:29N 45°59' W 122°50'0 0.0
2017-Nov-03 23:56N 45°59' W 122°50'0 0.0
2017-Nov-03 23:26N 45°59' W 122°50'0 0.0
2017-Nov-03 22:53N 45°59' W 122°50'0 0.0
2017-Nov-03 22:23N 45°59' W 122°50'  
Track history (hours):
 
Tides and Currents Weather Stations Pressure Air Temp Water Temp Dewpoint Dewpoint Depression Visibility Wind Speed Wind Dir Waves Ship Positions

Boga Indah

Last reported at 2017-Nov-13 22:00 UTC. Time now 2017-Nov-21 01:05 UTC.
Position N 48°54' W 155°36'.

Length 229 m; draft 13.1 m.

Type: Cargo ship. MMSI: 563770000.

Wind from 300 at 33 knots

Barometer 1026.0 mb
Air temperature 4.0 ° C
Visibility: greater than 5.4 NM
Water temperature 8.0 ° C

Date/timePositionNaut miles runAvg speedWind from/ knotsBaromVisibWave heightAir tempDewpointWater temp
2017-Nov-13 22:00N 48°54' W 155°36'   300 / 331026.0 5.4 4.0 8.0
2017-Nov-10 23:00N 47°12' W 139°54'   300 / 241015.0 5.4 6.0 11.0
2017-Nov-08 05:09N 46°13' W 125°44'2 7.0
2017-Nov-08 04:53N 46°12' W 125°41'5 7.1
2017-Nov-08 04:14N 46°12' W 125°35'3 8.2
2017-Nov-08 03:54N 46°12' W 125°31'3 8.2
2017-Nov-08 03:30N 46°13' W 125°26'4 8.9
2017-Nov-08 03:00N 46°13' W 125°19'5 9.6
2017-Nov-08 02:30N 46°13' W 125°13'5 9.9
2017-Nov-08 02:00N 46°13' W 125°05'510.4
2017-Nov-08 01:30N 46°13' W 124°58'510.8
2017-Nov-08 01:00N 46°13' W 124°50'611.1
2017-Nov-08 00:31N 46°13' W 124°42'611.3
2017-Nov-08 00:00N 46°13' W 124°34'611.5
2017-Nov-07 23:30N 46°13' W 124°26'611.7
2017-Nov-07 23:00N 46°13' W 124°17'611.2
2017-Nov-07 22:31N 46°12' W 124°09'510.6
2017-Nov-07 22:00N 46°16' W 124°03'5 9.6
2017-Nov-07 21:30N 46°13' W 123°57'4 7.8
2017-Nov-07 21:00N 46°12' W 123°52'4 8.5
2017-Nov-07 20:30N 46°13' W 123°46'5 9.4
2017-Nov-07 20:00N 46°15' W 123°40'510.4
2017-Nov-07 19:30N 46°16' W 123°33'5 9.2
2017-Nov-07 19:00N 46°15' W 123°26'510.2
2017-Nov-07 18:30N 46°10' W 123°24'510.8
2017-Nov-07 18:00N 46°09' W 123°17'612.7
2017-Nov-07 17:31N 46°11' W 123°08'611.9
2017-Nov-07 17:01N 46°08' W 123°01'5 9.9
2017-Nov-07 16:30N 46°05' W 122°55'510.1
2017-Nov-07 16:00N 46°01' W 122°52'2 4.5
2017-Nov-07 15:31N 45°59' W 122°50'0 0.1
2017-Nov-07 14:36N 45°59' W 122°50'0 0.0
2017-Nov-07 14:30N 45°59' W 122°50'0 0.0
2017-Nov-07 14:00N 45°59' W 122°50'0 0.0
2017-Nov-07 13:30N 45°59' W 122°50'0 0.0
2017-Nov-07 13:00N 45°59' W 122°50'0 0.0
2017-Nov-07 12:30N 45°59' W 122°50'0 0.0
2017-Nov-07 11:57N 45°59' W 122°50'0 0.0
2017-Nov-07 11:21N 45°59' W 122°50'0 0.0
2017-Nov-07 11:00N 45°59' W 122°50'0 0.0
2017-Nov-07 10:27N 45°59' W 122°50'0 0.0
2017-Nov-07 09:54N 45°59' W 122°50'0 0.0
2017-Nov-07 09:27N 45°59' W 122°50'0 0.0
2017-Nov-07 09:00N 45°59' W 122°50'0 0.0
2017-Nov-07 08:30N 45°59' W 122°50'0 0.0
2017-Nov-07 08:00N 45°59' W 122°50'0 0.0
2017-Nov-07 07:30N 45°59' W 122°50'0 0.0
2017-Nov-07 06:57N 45°59' W 122°50'0 0.0
2017-Nov-07 06:30N 45°59' W 122°50'0 0.0
2017-Nov-07 06:00N 45°59' W 122°50'0 0.0
2017-Nov-07 05:24N 45°59' W 122°50'0 0.0
2017-Nov-07 05:00N 45°59' W 122°50'0 0.0
2017-Nov-07 04:27N 45°59' W 122°50'0 0.0
2017-Nov-07 04:00N 45°59' W 122°50'0 0.0
2017-Nov-07 00:27N 45°59' W 122°50'0 0.0
2017-Nov-07 00:00N 45°59' W 122°50'0 0.0
2017-Nov-06 23:30N 45°59' W 122°50'0 0.0
2017-Nov-06 23:00N 45°59' W 122°50'0 0.0
2017-Nov-06 22:30N 45°59' W 122°50'0 0.0
2017-Nov-06 21:57N 45°59' W 122°50'0 0.0
2017-Nov-06 21:30N 45°59' W 122°50'0 0.0
2017-Nov-06 21:00N 45°59' W 122°50'0 0.0
2017-Nov-06 20:12N 45°59' W 122°50'0 0.0
2017-Nov-06 02:24N 45°59' W 122°50'0 0.0
2017-Nov-06 02:00N 45°59' W 122°50'0 0.0
2017-Nov-06 01:30N 45°59' W 122°50'0 0.0
2017-Nov-06 01:00N 45°59' W 122°50'0 0.0
2017-Nov-06 00:30N 45°59' W 122°50'0 0.0
2017-Nov-06 00:00N 45°59' W 122°50'0 0.0
2017-Nov-05 23:06N 45°59' W 122°50'0 0.0
2017-Nov-05 23:00N 45°59' W 122°50'0 0.0
2017-Nov-05 22:30N 45°59' W 122°50'0 0.0
2017-Nov-05 22:00N 45°59' W 122°50'0 0.0
2017-Nov-05 21:24N 45°59' W 122°50'0 0.0
2017-Nov-05 20:57N 45°59' W 122°50'0 0.0
2017-Nov-05 20:24N 45°59' W 122°50'0 0.0
2017-Nov-05 20:00N 45°59' W 122°50'0 0.0
2017-Nov-05 19:30N 45°59' W 122°50'0 0.0
2017-Nov-05 19:00N 45°59' W 122°50'0 0.0
2017-Nov-05 18:30N 45°59' W 122°50'0 0.0
2017-Nov-05 18:00N 45°59' W 122°50'0 0.0
2017-Nov-05 17:30N 45°59' W 122°50'0 0.0
2017-Nov-05 17:00N 45°59' W 122°50'0 0.0
2017-Nov-05 16:30N 45°59' W 122°50'0 0.0
2017-Nov-05 16:00N 45°59' W 122°50'0 0.0
2017-Nov-05 15:30N 45°59' W 122°50'0 0.0
2017-Nov-05 15:00N 45°59' W 122°50'0 0.0
2017-Nov-05 14:30N 45°59' W 122°50'0 0.0
2017-Nov-05 14:00N 45°59' W 122°50'0 0.0
2017-Nov-05 13:27N 45°59' W 122°50'0 0.0
2017-Nov-05 13:00N 45°59' W 122°50'0 0.0
2017-Nov-05 12:30N 45°59' W 122°50'0 0.0
2017-Nov-05 11:56N 45°59' W 122°50'0 0.0
2017-Nov-05 11:23N 45°59' W 122°50'0 0.0
2017-Nov-05 10:57N 45°59' W 122°50'0 0.0
2017-Nov-05 10:24N 45°59' W 122°50'0 0.0
2017-Nov-05 09:57N 45°59' W 122°50'0 0.0
2017-Nov-05 09:27N 45°59' W 122°50'0 0.0
2017-Nov-05 09:00N 45°59' W 122°50'0 0.0
2017-Nov-05 08:30N 45°59' W 122°50'0 0.0
2017-Nov-05 08:00N 45°59' W 122°50'0 0.0
2017-Nov-05 06:33N 45°59' W 122°50'0 0.0
2017-Nov-05 06:27N 45°59' W 122°50'0 0.0
2017-Nov-05 06:00N 45°59' W 122°50'0 0.0
2017-Nov-05 05:24N 45°59' W 122°50'0 0.0
2017-Nov-05 04:57N 45°59' W 122°50'0 0.0
2017-Nov-05 04:30N 45°59' W 122°50'0 0.0
2017-Nov-05 04:00N 45°59' W 122°50'0 0.0
2017-Nov-05 03:27N 45°59' W 122°50'0 0.0
2017-Nov-05 03:00N 45°59' W 122°50'0 0.0
2017-Nov-05 02:27N 45°59' W 122°50'0 0.0
2017-Nov-05 02:00N 45°59' W 122°50'0 0.0
2017-Nov-05 01:30N 45°59' W 122°50'0 0.0
2017-Nov-05 01:00N 45°59' W 122°50'0 0.0
2017-Nov-05 00:30N 45°59' W 122°50'0 0.0
2017-Nov-05 00:00N 45°59' W 122°50'0 0.0
2017-Nov-04 23:27N 45°59' W 122°50'0 0.0
2017-Nov-04 23:00N 45°59' W 122°50'0 0.0
2017-Nov-04 22:30N 45°59' W 122°50'0 0.0
2017-Nov-04 22:00N 45°59' W 122°50'0 0.0
2017-Nov-04 21:29N 45°59' W 122°50'0 0.0
2017-Nov-04 21:00N 45°59' W 122°50'0 0.0
2017-Nov-04 20:30N 45°59' W 122°50'0 0.0
2017-Nov-04 20:00N 45°59' W 122°50'0 0.0
2017-Nov-04 19:29N 45°59' W 122°50'0 0.0
2017-Nov-04 19:00N 45°59' W 122°50'0 0.0
2017-Nov-04 18:15N 45°59' W 122°50'0 0.0
2017-Nov-04 18:00N 45°59' W 122°50'0 0.0
2017-Nov-04 17:30N 45°59' W 122°50'0 0.0
2017-Nov-04 17:00N 45°59' W 122°50'0 0.0
2017-Nov-04 16:30N 45°59' W 122°50'0 0.0
2017-Nov-04 15:56N 45°59' W 122°50'0 0.0
2017-Nov-04 15:27N 45°59' W 122°50'0 0.0
2017-Nov-04 15:00N 45°59' W 122°50'0 0.0
2017-Nov-04 14:20N 45°59' W 122°50'0 0.0
2017-Nov-04 13:59N 45°59' W 122°50'0 0.0
2017-Nov-04 13:29N 45°59' W 122°50'0 0.0
2017-Nov-04 12:56N 45°59' W 122°50'0 0.0
2017-Nov-04 12:29N 45°59' W 122°50'0 0.0
2017-Nov-04 11:57N 45°59' W 122°50'0 0.0
2017-Nov-04 11:29N 45°59' W 122°50'0 0.0
2017-Nov-04 10:59N 45°59' W 122°50'0 0.0
2017-Nov-04 09:50N 45°59' W 122°50'0 0.0
2017-Nov-04 09:26N 45°59' W 122°50'0 0.0
2017-Nov-04 08:56N 45°59' W 122°50'0 0.0
2017-Nov-04 08:30N 45°59' W 122°50'0 0.0
2017-Nov-04 07:56N 45°59' W 122°50'0 0.0
2017-Nov-04 07:29N 45°59' W 122°50'0 0.0
2017-Nov-04 06:59N 45°59' W 122°50'0 0.0
2017-Nov-04 06:29N 45°59' W 122°50'0 0.0
2017-Nov-04 05:50N 45°59' W 122°50'0 0.0
2017-Nov-04 05:26N 45°59' W 122°50'0 0.0
2017-Nov-04 04:59N 45°59' W 122°50'0 0.0
2017-Nov-04 04:29N 45°59' W 122°50'0 0.0
2017-Nov-04 03:59N 45°59' W 122°50'0 0.0
2017-Nov-04 03:02N 45°59' W 122°50'0 0.0
2017-Nov-04 02:59N 45°59' W 122°50'0 0.0
2017-Nov-04 02:29N 45°59' W 122°50'0 0.0
2017-Nov-04 01:56N 45°59' W 122°50'0 0.0
2017-Nov-04 01:29N 45°59' W 122°50'0 0.0
2017-Nov-04 00:59N 45°59' W 122°50'0 0.0
2017-Nov-04 00:29N 45°59' W 122°50'0 0.0
2017-Nov-03 23:56N 45°59' W 122°50'0 0.0
2017-Nov-03 23:26N 45°59' W 122°50'0 0.0
2017-Nov-03 22:53N 45°59' W 122°50'0 0.0
2017-Nov-03 22:23N 45°59' W 122°50'  

Dump ship's entire track history